Piratuba, Brazil
Current Conditions -  °F | °C
As of 7:00 PM on Wednesday 26 Nov 2014 (Local Time) from SBCH Reporting Station
Scattered Clouds Scattered Clouds  
Wind Chill: 84°   Ceiling: Unl
Heat Index: 85°   Visibility: 6mi
Dew Point: 63°   Wind: 9mph
Humidity: 48%   Direction: 200°SSW
Pressure: 29.83"   Gusts: NA
Location:  27.42°S, 51.77°W
Report Text: SBCH 262100Z 20008KT 9999 SCT035 FEW040TCU 29/17 Q1010
Loading
Personal Weather Stations






























Interactive Weather Map New forecast layout! Learn more

10-Day Weather Forecast

Advertisements
Track Severe Weather on mobile